Time;durP1;ratioP1;P1;durP2;ratioP2;P2;SDS_P1;SDS_P2;PMS_P1;PMS_P2;Temp;Humidity;BMP_temperature;BMP_pressure;BME280_temperature;BME280_humidity;BME280_pressure;Samples;Min_cycle;Max_cycle;Signal;HPM_P1;HPM_P2
2021/08/18 05:37:59;;;;;;;17.83;6.25;;;;;;;;;;5010505;23;20073;-63
2021/08/18 05:40:24;;;;;;;16.53;5.27;;;;;;;;;;4972185;28;20482;-58
2021/08/18 05:42:50;;;;;;;18.63;6.20;;;;;;;;;;4973948;28;20042;-59
2021/08/18 05:45:16;;;;;;;15.23;5.53;;;;;;;;;;4959354;28;20105;-53
2021/08/18 05:47:41;;;;;;;16.17;5.77;;;;;;;;;;4954485;29;20081;-64
2021/08/18 05:50:07;;;;;;;15.73;5.53;;;;;;;;;;4937728;29;20027;-62
2021/08/18 05:52:32;;;;;;;14.37;5.43;;;;;;;;;;4966145;28;20027;-62
2021/08/18 05:55:02;;;;;;;15.07;5.20;;;;;;;;;;4960762;28;20284;-59
2021/08/18 05:57:27;;;;;;;12.80;4.75;;;;;;;;;;4955099;29;20035;-63
2021/08/18 05:59:53;;;;;;;11.17;4.77;;;;;;;;;;4954441;29;20395;-62
2021/08/18 06:02:18;;;;;;;13.73;4.73;;;;;;;;;;4953394;29;20183;-62
2021/08/18 06:04:43;;;;;;;11.10;4.77;;;;;;;;;;4953347;29;20102;-63
2021/08/18 06:07:09;;;;;;;10.87;4.50;;;;;;;;;;4937949;29;20110;-64
2021/08/18 06:09:34;;;;;;;11.47;4.83;;;;;;;;;;4957294;28;20113;-62
2021/08/18 06:12:00;;;;;;;12.53;4.70;;;;;;;;;;4956889;28;20057;-60
2021/08/18 06:14:25;;;;;;;16.23;4.80;;;;;;;;;;4973965;28;20483;-64
2021/08/18 06:16:50;;;;;;;12.50;4.97;;;;;;;;;;4960116;28;20031;-61
2021/08/18 06:19:16;;;;;;;12.37;4.97;;;;;;;;;;4962754;28;20076;-60
2021/08/18 06:21:41;;;;;;;12.33;4.73;;;;;;;;;;4969270;28;20109;-61
2021/08/18 06:27:12;;;;;;;12.57;5.15;;;;;;;;;;4913437;29;20555;-57
2021/08/18 06:29:38;;;;;;;15.43;5.18;;;;;;;;;;4911503;29;20044;-56
2021/08/18 06:32:04;;;;;;;13.67;5.30;;;;;;;;;;4923308;28;20351;-62
2021/08/18 06:34:29;;;;;;;15.57;5.50;;;;;;;;;;4939222;28;20042;-62
2021/08/18 06:36:55;;;;;;;15.03;5.83;;;;;;;;;;4937175;29;20051;-55
2021/08/18 06:39:20;;;;;;;15.07;5.70;;;;;;;;;;4954182;29;20118;-59
2021/08/18 06:41:45;;;;;;;15.33;5.77;;;;;;;;;;4953006;29;20189;-63
2021/08/18 06:44:11;;;;;;;14.93;5.57;;;;;;;;;;4944374;28;20386;-65
2021/08/18 06:46:36;;;;;;;14.53;5.77;;;;;;;;;;4973601;28;20542;-60
2021/08/18 06:49:02;;;;;;;20.63;7.33;;;;;;;;;;4973280;28;20129;-59
2021/08/18 06:51:28;;;;;;;17.87;5.80;;;;;;;;;;4955563;28;20029;-61
2021/08/18 06:53:53;;;;;;;17.33;5.60;;;;;;;;;;4973437;28;20026;-65
2021/08/18 06:56:18;;;;;;;14.47;5.90;;;;;;;;;;4972707;28;20030;-62
2021/08/18 06:58:44;;;;;;;15.97;5.53;;;;;;;;;;4972663;28;20109;-56
2021/08/18 07:01:09;;;;;;;16.00;6.13;;;;;;;;;;4972947;28;20542;-61
2021/08/18 07:03:34;;;;;;;14.33;6.00;;;;;;;;;;4956227;28;20031;-63
2021/08/18 07:06:00;;;;;;;18.07;6.10;;;;;;;;;;4973344;28;20027;-63
2021/08/18 07:08:25;;;;;;;18.20;5.87;;;;;;;;;;4955425;28;20050;-63
2021/08/18 07:10:53;;;;;;;17.77;6.33;;;;;;;;;;4955835;28;20513;-63
2021/08/18 07:13:19;;;;;;;15.30;5.55;;;;;;;;;;4955978;28;20034;-62
2021/08/18 07:15:45;;;;;;;15.25;5.75;;;;;;;;;;4954155;29;20031;-62
2021/08/18 07:18:10;;;;;;;17.43;5.63;;;;;;;;;;4936553;29;20075;-60
2021/08/18 07:20:35;;;;;;;15.70;5.73;;;;;;;;;;4953029;29;20114;-61
2021/08/18 07:23:01;;;;;;;16.23;6.00;;;;;;;;;;4953303;29;20110;-61
2021/08/18 07:25:26;;;;;;;13.40;5.63;;;;;;;;;;4936134;28;20456;-59
2021/08/18 07:27:51;;;;;;;15.90;5.87;;;;;;;;;;4952190;29;20026;-57
2021/08/18 07:30:17;;;;;;;17.67;5.43;;;;;;;;;;4953312;29;20078;-59
2021/08/18 07:32:42;;;;;;;14.33;5.70;;;;;;;;;;4952902;29;20158;-65
2021/08/18 07:35:08;;;;;;;14.17;5.40;;;;;;;;;;4953521;29;20529;-61
2021/08/18 07:37:33;;;;;;;13.80;5.10;;;;;;;;;;4953029;29;20086;-59
2021/08/18 07:39:59;;;;;;;13.33;5.10;;;;;;;;;;4952126;28;20023;-60
2021/08/18 07:42:24;;;;;;;13.77;5.37;;;;;;;;;;4952333;28;20027;-61
2021/08/18 07:44:50;;;;;;;13.63;5.40;;;;;;;;;;4972322;28;20023;-61
2021/08/18 07:47:15;;;;;;;13.70;5.40;;;;;;;;;;4938656;28;20035;-63
2021/08/18 07:49:41;;;;;;;16.43;5.77;;;;;;;;;;4972164;28;20487;-56
2021/08/18 07:52:06;;;;;;;16.10;5.37;;;;;;;;;;4971906;28;20018;-54
2021/08/18 07:54:32;;;;;;;12.23;4.33;;;;;;;;;;4971608;28;20387;-56
2021/08/18 07:56:58;;;;;;;13.35;5.00;;;;;;;;;;4939266;28;20391;-56
2021/08/18 07:59:23;;;;;;;13.70;4.40;;;;;;;;;;4972040;28;20035;-61
2021/08/18 08:01:48;;;;;;;10.53;4.40;;;;;;;;;;4972062;28;20161;-58
2021/08/18 08:04:14;;;;;;;11.93;4.57;;;;;;;;;;4972382;28;20019;-61
2021/08/18 08:06:39;;;;;;;12.80;4.70;;;;;;;;;;4972218;28;20453;-58
2021/08/18 08:09:04;;;;;;;12.87;4.53;;;;;;;;;;4957251;28;20125;-57
2021/08/18 08:11:30;;;;;;;13.50;4.73;;;;;;;;;;4952220;29;20031;-56
2021/08/18 08:13:55;;;;;;;11.23;4.50;;;;;;;;;;4953184;29;20078;-63
2021/08/18 08:16:21;;;;;;;13.30;4.60;;;;;;;;;;4952338;29;20031;-60
2021/08/18 08:18:46;;;;;;;11.43;4.43;;;;;;;;;;4953011;29;20055;-60
2021/08/18 08:21:12;;;;;;;13.23;4.50;;;;;;;;;;4935255;29;20030;-60
2021/08/18 08:23:37;;;;;;;12.00;4.90;;;;;;;;;;4970622;28;20023;-62
2021/08/18 08:26:02;;;;;;;11.77;4.13;;;;;;;;;;4971550;28;20030;-57
2021/08/18 08:28:28;;;;;;;11.67;4.33;;;;;;;;;;4954524;28;20056;-62
2021/08/18 08:30:53;;;;;;;9.80;4.23;;;;;;;;;;4971343;28;20117;-63
2021/08/18 08:33:18;;;;;;;11.37;4.10;;;;;;;;;;4971618;28;20026;-63
2021/08/18 08:35:44;;;;;;;9.97;3.80;;;;;;;;;;4968292;28;20038;-63
2021/08/18 08:38:09;;;;;;;11.10;4.10;;;;;;;;;;4950744;29;20042;-60
2021/08/18 08:40:36;;;;;;;10.53;3.60;;;;;;;;;;4951967;29;20027;-59
2021/08/18 08:43:01;;;;;;;;;;;;;;;;;;4935536;29;20019;-54
2021/08/18 08:45:26;;;;;;;9.47;4.30;;;;;;;;;;4934963;29;19985;-61
2021/08/18 08:47:52;;;;;;;11.93;4.00;;;;;;;;;;4935330;29;20023;-61
2021/08/18 08:50:17;;;;;;;10.17;3.47;;;;;;;;;;4959108;28;20023;-59
2021/08/18 08:52:43;;;;;;;12.37;3.80;;;;;;;;;;4953443;28;20026;-58
2021/08/18 08:55:09;;;;;;;10.07;4.13;;;;;;;;;;4971020;28;20027;-60
2021/08/18 08:57:45;;;;;;;10.55;3.92;;;;;;;;;;4970736;28;20022;-61
2021/08/18 09:00:10;;;;;;;10.30;3.88;;;;;;;;;;4971481;28;20031;-57
2021/08/18 09:02:36;;;;;;;10.47;4.07;;;;;;;;;;4971001;28;20061;-59
2021/08/18 09:05:01;;;;;;;11.80;3.97;;;;;;;;;;4957381;28;20396;-61
2021/08/18 09:07:28;;;;;;;10.97;3.77;;;;;;;;;;4950505;29;20031;-59
2021/08/18 09:09:54;;;;;;;8.95;3.40;;;;;;;;;;4951841;29;20042;-60
2021/08/18 09:12:20;;;;;;;9.45;4.03;;;;;;;;;;4950057;29;20023;-63
2021/08/18 09:14:46;;;;;;;;;;;;;;;;;;4935176;29;20035;-60
2021/08/18 09:17:29;;;;;;;7.93;3.17;;;;;;;;;;4951889;29;19917;-59
2021/08/18 09:20:06;;;;;;;9.15;2.97;;;;;;;;;;4919098;29;20039;-61
2021/08/18 09:22:35;;;;;;;9.50;3.05;;;;;;;;;;4950802;29;20023;-59
2021/08/18 09:25:17;;;;;;;7.18;3.13;;;;;;;;;;4950393;29;20057;-58
2021/08/18 09:27:43;;;;;;;6.45;2.42;;;;;;;;;;4950893;29;20333;-60
2021/08/18 09:30:17;;;;;;;8.98;2.40;;;;;;;;;;4950367;29;20078;-60
2021/08/18 09:32:42;;;;;;;7.75;2.60;;;;;;;;;;4961788;28;20033;-62
2021/08/18 09:35:12;;;;;;;5.43;2.10;;;;;;;;;;4953018;28;20061;-58
2021/08/18 09:37:39;;;;;;;5.20;2.38;;;;;;;;;;4954156;28;20430;-59
2021/08/18 09:40:18;;;;;;;5.20;2.25;;;;;;;;;;4953854;28;20097;-58
2021/08/18 09:42:43;;;;;;;6.22;1.90;;;;;;;;;;4938076;28;20046;-61
2021/08/18 09:45:32;;;;;;;7.23;2.10;;;;;;;;;;4970763;28;20018;-61
2021/08/18 09:48:04;;;;;;;9.25;5.03;;;;;;;;;;4952444;28;20031;-59
2021/08/18 09:51:01;;;;;;;5.03;2.40;;;;;;;;;;4951532;28;20023;-58
2021/08/18 09:53:34;;;;;;;5.07;2.50;;;;;;;;;;4934262;29;20038;-60
2021/08/18 09:56:13;;;;;;;4.00;1.70;;;;;;;;;;4934533;29;20063;-61
2021/08/18 09:58:54;;;;;;;4.55;1.63;;;;;;;;;;4934313;29;20030;-63
2021/08/18 10:01:20;;;;;;;4.95;1.90;;;;;;;;;;4960957;28;20030;-59
2021/08/18 10:03:47;;;;;;;4.85;1.90;;;;;;;;;;4951403;29;20047;-58
2021/08/18 10:06:13;;;;;;;4.10;1.70;;;;;;;;;;4934395;29;20377;-62
2021/08/18 10:08:39;;;;;;;4.17;1.80;;;;;;;;;;4936400;29;20030;-58
2021/08/18 10:11:06;;;;;;;4.80;1.88;;;;;;;;;;4954436;29;20031;-64
2021/08/18 10:13:31;;;;;;;5.13;1.90;;;;;;;;;;4922773;28;20399;-62
2021/08/18 10:15:57;;;;;;;4.43;1.80;;;;;;;;;;4941072;28;20023;-59
2021/08/18 10:18:31;;;;;;;4.17;1.63;;;;;;;;;;4974305;28;20023;-58
2021/08/18 10:20:58;;;;;;;3.97;1.70;;;;;;;;;;4973302;28;20030;-58
2021/08/18 10:24:00;;;;;;;4.15;1.67;;;;;;;;;;5090077;23;20130;-60
2021/08/18 10:26:49;;;;;;;3.60;1.60;;;;;;;;;;4970101;28;20030;-59
2021/08/18 10:29:16;;;;;;;3.70;1.50;;;;;;;;;;4988004;28;20387;-59
2021/08/18 10:31:41;;;;;;;3.85;1.52;;;;;;;;;;4975415;28;20505;-62
2021/08/18 10:34:10;;;;;;;4.63;1.67;;;;;;;;;;4993556;28;20117;-53
2021/08/18 10:36:42;;;;;;;4.97;1.83;;;;;;;;;;4976065;28;20089;-57
2021/08/18 10:39:22;;;;;;;4.05;1.73;;;;;;;;;;4992875;28;20030;-52
2021/08/18 10:42:03;;;;;;;4.85;1.85;;;;;;;;;;4989174;28;20398;-50
2021/08/18 10:44:41;;;;;;;4.95;1.75;;;;;;;;;;4956836;28;20023;-50
2021/08/18 10:47:10;;;;;;;3.75;1.88;;;;;;;;;;4973574;28;20037;-51
2021/08/18 10:49:35;;;;;;;3.75;1.60;;;;;;;;;;4979186;28;20509;-56
2021/08/18 10:52:00;;;;;;;4.60;2.00;;;;;;;;;;4992480;28;20030;-51
2021/08/18 10:54:28;;;;;;;4.03;1.80;;;;;;;;;;4993235;28;20549;-56
2021/08/18 10:56:58;;;;;;;3.88;1.55;;;;;;;;;;4992938;28;20505;-55
2021/08/18 10:59:35;;;;;;;4.55;1.70;;;;;;;;;;4975278;28;20490;-61
2021/08/18 11:02:07;;;;;;;3.95;1.70;;;;;;;;;;4992074;28;20073;-56
2021/08/18 11:04:48;;;;;;;5.13;1.83;;;;;;;;;;4961776;28;20106;-53
2021/08/18 11:07:14;;;;;;;4.50;1.70;;;;;;;;;;4965946;28;20042;-57
2021/08/18 11:09:49;;;;;;;3.33;1.63;;;;;;;;;;4966940;28;20018;-58
2021/08/18 11:12:39;;;;;;;4.97;1.80;;;;;;;;;;4985698;28;20121;-52
2021/08/18 11:15:19;;;;;;;6.30;2.00;;;;;;;;;;4992384;28;20027;-54
2021/08/18 11:17:45;;;;;;;3.50;1.60;;;;;;;;;;4992268;28;20085;-54
2021/08/18 11:20:16;;;;;;;3.72;1.60;;;;;;;;;;4991351;28;20033;-54
2021/08/18 11:22:42;;;;;;;3.70;1.70;;;;;;;;;;4991554;28;20715;-52
2021/08/18 11:25:08;;;;;;;4.27;1.70;;;;;;;;;;4970379;28;20050;-54
2021/08/18 11:27:33;;;;;;;5.63;1.63;;;;;;;;;;4955741;28;20031;-51
2021/08/18 11:29:59;;;;;;;3.40;1.20;;;;;;;;;;4955093;28;20593;-58
2021/08/18 11:32:27;;;;;;;3.87;1.40;;;;;;;;;;4954968;28;20109;-53
2021/08/18 11:34:52;;;;;;;2.72;1.20;;;;;;;;;;4971854;28;20034;-56
2021/08/18 11:37:18;;;;;;;3.33;1.50;;;;;;;;;;4955129;28;20230;-51
2021/08/18 11:39:46;;;;;;;4.47;1.40;;;;;;;;;;4963242;28;20022;-64
2021/08/18 11:42:19;;;;;;;3.20;1.20;;;;;;;;;;4991620;28;20034;-52
2021/08/18 11:44:45;;;;;;;2.25;1.00;;;;;;;;;;4991736;28;20053;-57
2021/08/18 11:47:12;;;;;;;2.90;1.27;;;;;;;;;;4957678;28;20034;-52
2021/08/18 11:49:38;;;;;;;4.28;1.58;;;;;;;;;;4973816;28;20431;-60
2021/08/18 11:52:04;;;;;;;3.22;1.40;;;;;;;;;;4977841;28;20026;-65
2021/08/18 11:54:29;;;;;;;4.22;1.30;;;;;;;;;;4938382;28;20070;-60
2021/08/18 11:57:02;;;;;;;2.70;1.30;;;;;;;;;;4954248;28;20026;-54
2021/08/18 11:59:28;;;;;;;3.22;1.33;;;;;;;;;;4955174;28;20558;-56
2021/08/18 12:01:56;;;;;;;2.73;1.10;;;;;;;;;;4971466;28;20359;-58
2021/08/18 12:04:22;;;;;;;2.63;1.30;;;;;;;;;;4954087;28;20019;-61
2021/08/18 12:07:02;;;;;;;2.80;1.13;;;;;;;;;;4971482;28;20426;-55
2021/08/18 12:09:28;;;;;;;2.72;1.10;;;;;;;;;;4971304;28;20038;-64
2021/08/18 12:12:04;;;;;;;2.37;1.20;;;;;;;;;;4991167;28;20032;-57
2021/08/18 12:14:36;;;;;;;3.10;1.20;;;;;;;;;;4973616;28;20463;-61
2021/08/18 12:17:01;;;;;;;4.00;1.40;;;;;;;;;;4990689;28;20035;-56
2021/08/18 12:19:27;;;;;;;2.87;1.30;;;;;;;;;;4990439;28;20042;-61
2021/08/18 12:22:16;;;;;;;2.75;1.38;;;;;;;;;;4950499;28;20027;-63
2021/08/18 12:25:05;;;;;;;2.95;1.30;;;;;;;;;;4968519;28;20038;-57
2021/08/18 12:27:31;;;;;;;2.65;1.13;;;;;;;;;;4965409;28;20066;-62
2021/08/18 12:30:15;;;;;;;3.28;1.30;;;;;;;;;;4970062;28;20513;-59
2021/08/18 12:32:41;;;;;;;1.85;1.02;;;;;;;;;;4971197;28;20035;-73
2021/08/18 12:35:09;;;;;;;2.23;1.07;;;;;;;;;;4969827;28;20031;-67
2021/08/18 12:37:36;;;;;;;2.28;1.10;;;;;;;;;;4951796;29;20083;-68
2021/08/18 12:40:08;;;;;;;1.85;1.00;;;;;;;;;;4951619;29;20031;-67
2021/08/18 12:42:35;;;;;;;4.32;0.95;;;;;;;;;;4951120;29;20111;-71
2021/08/18 12:45:12;;;;;;;1.50;0.77;;;;;;;;;;4950960;29;20045;-56
2021/08/18 12:47:44;;;;;;;;;;;;;;;;;;4952387;29;20483;-62
2021/08/18 12:50:15;;;;;;;2.88;0.90;;;;;;;;;;4976828;28;19913;-63
2021/08/18 12:52:40;;;;;;;3.35;0.90;;;;;;;;;;4956845;28;20518;-62
2021/08/18 12:55:06;;;;;;;2.80;0.70;;;;;;;;;;4989790;28;20030;-61
2021/08/18 12:57:33;;;;;;;0.98;0.52;;;;;;;;;;4990710;28;20030;-63
2021/08/18 12:59:58;;;;;;;;;;;;;;;;;;4972961;28;20030;-62
2021/08/18 13:02:23;;;;;;;1.87;0.60;;;;;;;;;;4990022;28;19917;-58
2021/08/18 13:04:49;;;;;;;1.23;0.60;;;;;;;;;;4978447;28;20293;-61
2021/08/18 13:07:14;;;;;;;2.43;0.60;;;;;;;;;;4970730;28;20058;-61
2021/08/18 13:09:39;;;;;;;1.50;0.60;;;;;;;;;;4953531;28;20031;-60
2021/08/18 13:12:05;;;;;;;2.03;0.70;;;;;;;;;;4970129;28;20114;-58
2021/08/18 13:14:31;;;;;;;1.63;0.68;;;;;;;;;;4970710;28;20033;-61
2021/08/18 13:16:57;;;;;;;1.42;0.70;;;;;;;;;;4953149;28;20053;-59
2021/08/18 13:19:24;;;;;;;2.13;0.70;;;;;;;;;;4969194;28;20486;-54
2021/08/18 13:21:49;;;;;;;1.85;0.75;;;;;;;;;;4971849;28;20034;-57
2021/08/18 13:24:15;;;;;;;1.60;0.67;;;;;;;;;;4989344;28;20026;-62
2021/08/18 13:26:41;;;;;;;1.40;0.67;;;;;;;;;;4990119;28;20113;-59
2021/08/18 13:29:06;;;;;;;0.80;0.55;;;;;;;;;;4989213;28;20026;-58
2021/08/18 13:31:32;;;;;;;1.70;0.70;;;;;;;;;;4970933;28;20423;-58
2021/08/18 13:33:58;;;;;;;1.30;0.60;;;;;;;;;;4952948;28;20077;-61
2021/08/18 13:36:23;;;;;;;1.65;0.60;;;;;;;;;;4953075;28;20109;-60
2021/08/18 13:38:49;;;;;;;1.47;0.60;;;;;;;;;;4953625;28;20607;-58
2021/08/18 13:41:14;;;;;;;1.40;0.90;;;;;;;;;;4970040;28;20535;-53
2021/08/18 13:43:40;;;;;;;3.20;0.83;;;;;;;;;;4973202;28;20076;-60
2021/08/18 13:46:05;;;;;;;1.83;0.93;;;;;;;;;;4974049;28;20101;-54
2021/08/18 13:48:31;;;;;;;1.90;0.97;;;;;;;;;;4974960;28;20110;-52
2021/08/18 13:50:57;;;;;;;1.35;0.80;;;;;;;;;;4956474;28;20454;-54
2021/08/18 13:53:22;;;;;;;1.73;0.80;;;;;;;;;;4974208;28;20030;-60
2021/08/18 13:55:47;;;;;;;1.67;0.90;;;;;;;;;;4957009;28;20037;-59
2021/08/18 13:58:13;;;;;;;2.10;0.90;;;;;;;;;;4956631;28;20470;-62
2021/08/18 14:00:38;;;;;;;1.60;0.80;;;;;;;;;;4956505;28;20035;-60
2021/08/18 14:03:04;;;;;;;1.70;0.90;;;;;;;;;;4973570;28;20503;-60
2021/08/18 14:05:29;;;;;;;2.80;1.00;;;;;;;;;;4974524;28;20126;-55
2021/08/18 14:07:55;;;;;;;4.07;0.90;;;;;;;;;;4973827;28;20037;-57
2021/08/18 14:10:22;;;;;;;1.73;0.90;;;;;;;;;;4974036;28;20037;-60
2021/08/18 14:12:47;;;;;;;1.70;0.80;;;;;;;;;;4973642;28;20034;-64
2021/08/18 14:15:13;;;;;;;2.13;0.97;;;;;;;;;;4973215;28;20030;-53
2021/08/18 14:17:38;;;;;;;3.07;0.97;;;;;;;;;;4974201;28;20050;-49
2021/08/18 14:20:04;;;;;;;3.20;1.00;;;;;;;;;;4973566;28;20023;-50
2021/08/18 14:22:29;;;;;;;3.17;0.80;;;;;;;;;;4973435;28;20476;-62
2021/08/18 14:24:55;;;;;;;2.60;0.90;;;;;;;;;;4956599;28;20023;-64
2021/08/18 14:27:20;;;;;;;2.43;1.00;;;;;;;;;;4973120;28;20105;-61
2021/08/18 14:29:45;;;;;;;2.77;1.17;;;;;;;;;;4973538;28;20483;-61
2021/08/18 14:32:11;;;;;;;2.30;0.83;;;;;;;;;;4973379;28;20030;-54
2021/08/18 14:34:36;;;;;;;1.87;0.90;;;;;;;;;;4956154;28;20030;-62
2021/08/18 14:37:04;;;;;;;2.77;1.00;;;;;;;;;;4973552;28;20467;-58
2021/08/18 14:39:29;;;;;;;2.35;1.10;;;;;;;;;;4973487;28;20262;-59
2021/08/18 14:41:55;;;;;;;2.13;1.10;;;;;;;;;;4972664;28;20023;-56
2021/08/18 14:44:20;;;;;;;2.13;1.00;;;;;;;;;;4955934;28;20115;-57
2021/08/18 14:46:48;;;;;;;1.73;0.93;;;;;;;;;;4973608;28;20109;-53
2021/08/18 14:49:13;;;;;;;2.70;1.25;;;;;;;;;;4973037;28;20510;-60
2021/08/18 14:51:39;;;;;;;3.80;1.20;;;;;;;;;;4955961;28;20106;-53
2021/08/18 14:54:06;;;;;;;2.30;1.10;;;;;;;;;;4954556;28;20078;-63
2021/08/18 14:56:31;;;;;;;2.58;1.10;;;;;;;;;;4965189;28;20435;-52
2021/08/18 14:58:56;;;;;;;3.50;1.20;;;;;;;;;;4992421;28;20113;-63
2021/08/18 15:01:22;;;;;;;2.37;1.07;;;;;;;;;;4991834;28;20069;-60
2021/08/18 15:03:47;;;;;;;2.43;1.00;;;;;;;;;;4992119;28;20109;-56
2021/08/18 15:06:12;;;;;;;2.47;1.00;;;;;;;;;;4992084;28;20566;-63
2021/08/18 15:08:38;;;;;;;1.80;0.90;;;;;;;;;;4992190;28;20080;-62
2021/08/18 15:11:04;;;;;;;2.70;1.17;;;;;;;;;;4977289;28;20113;-57
2021/08/18 15:13:29;;;;;;;2.33;0.90;;;;;;;;;;4972466;28;20038;-56
2021/08/18 15:15:55;;;;;;;2.33;1.13;;;;;;;;;;4972498;28;20300;-54
2021/08/18 15:18:20;;;;;;;4.20;1.20;;;;;;;;;;4972300;28;20074;-55
2021/08/18 15:20:45;;;;;;;2.07;1.00;;;;;;;;;;4954831;28;20030;-64
2021/08/18 15:23:11;;;;;;;3.53;0.97;;;;;;;;;;4972008;28;20394;-58
2021/08/18 15:25:36;;;;;;;2.47;0.90;;;;;;;;;;4990871;28;20027;-61
2021/08/18 15:28:02;;;;;;;1.70;0.90;;;;;;;;;;4974720;28;20463;-53
2021/08/18 15:30:28;;;;;;;2.63;1.13;;;;;;;;;;4974019;28;20036;-59
2021/08/18 15:32:53;;;;;;;2.20;0.90;;;;;;;;;;4973652;28;20033;-56
2021/08/18 15:35:22;;;;;;;1.93;1.00;;;;;;;;;;4974493;28;20038;-56
2021/08/18 15:37:52;;;;;;;1.52;0.75;;;;;;;;;;4987872;28;20038;-61
2021/08/18 15:40:21;;;;;;;2.78;1.00;;;;;;;;;;4955022;28;20037;-60
2021/08/18 15:42:46;;;;;;;3.50;1.05;;;;;;;;;;4955071;28;20386;-59
2021/08/18 15:45:12;;;;;;;1.97;0.80;;;;;;;;;;4972320;28;20025;-58
2021/08/18 15:47:38;;;;;;;4.03;1.10;;;;;;;;;;4955296;28;20126;-59
2021/08/18 15:50:05;;;;;;;3.47;1.25;;;;;;;;;;4955320;28;20027;-57
2021/08/18 15:52:31;;;;;;;3.88;1.00;;;;;;;;;;4963887;28;20038;-60
2021/08/18 15:54:57;;;;;;;2.30;0.90;;;;;;;;;;4974594;28;20026;-60
2021/08/18 15:57:24;;;;;;;2.03;0.83;;;;;;;;;;4991613;28;20038;-61
2021/08/18 15:59:49;;;;;;;2.28;0.90;;;;;;;;;;4991705;28;20035;-58
2021/08/18 16:02:14;;;;;;;1.90;0.83;;;;;;;;;;4974052;28;20073;-60
2021/08/18 16:04:40;;;;;;;1.40;0.80;;;;;;;;;;4991543;28;20093;-55
2021/08/18 16:07:05;;;;;;;5.73;1.10;;;;;;;;;;4958838;28;20027;-55
2021/08/18 16:09:31;;;;;;;2.10;0.90;;;;;;;;;;4971499;28;20037;-60
2021/08/18 16:11:56;;;;;;;1.73;0.90;;;;;;;;;;4970554;28;20026;-58
2021/08/18 16:14:22;;;;;;;2.83;1.10;;;;;;;;;;4971189;28;20486;-58
2021/08/18 16:16:47;;;;;;;1.70;0.73;;;;;;;;;;4954577;28;20037;-56
2021/08/18 16:19:13;;;;;;;1.33;0.70;;;;;;;;;;4954605;28;20037;-57
2021/08/18 16:21:38;;;;;;;2.77;0.80;;;;;;;;;;4970383;28;20546;-56
2021/08/18 16:24:03;;;;;;;1.60;0.87;;;;;;;;;;4971023;28;20031;-61
2021/08/18 16:26:30;;;;;;;1.83;0.93;;;;;;;;;;4971198;28;20023;-60
2021/08/18 16:28:57;;;;;;;1.73;0.88;;;;;;;;;;4954847;28;20479;-60
2021/08/18 16:31:22;;;;;;;2.50;0.93;;;;;;;;;;4971331;28;20126;-59
2021/08/18 16:33:47;;;;;;;1.97;0.80;;;;;;;;;;4957169;28;20121;-61
2021/08/18 16:36:13;;;;;;;1.90;0.70;;;;;;;;;;4991374;28;20026;-61
2021/08/18 16:38:38;;;;;;;4.23;0.80;;;;;;;;;;4979205;28;20109;-59
2021/08/18 16:41:04;;;;;;;1.93;0.90;;;;;;;;;;4954236;28;20026;-59
2021/08/18 16:43:31;;;;;;;1.70;0.90;;;;;;;;;;4971572;28;20396;-60
2021/08/18 16:45:56;;;;;;;;;;;;;;;;;;4972262;28;20379;-60
2021/08/18 16:48:21;;;;;;;1.60;0.73;;;;;;;;;;4978630;28;19921;-58
2021/08/18 16:50:47;;;;;;;2.50;1.10;;;;;;;;;;4974086;28;20109;-59
2021/08/18 16:53:12;;;;;;;3.40;1.43;;;;;;;;;;4990762;28;20061;-60
2021/08/18 16:55:38;;;;;;;1.88;0.85;;;;;;;;;;4990985;28;20097;-57
2021/08/18 16:58:07;;;;;;;2.00;0.90;;;;;;;;;;4957964;28;20117;-59
2021/08/18 17:00:32;;;;;;;1.98;0.80;;;;;;;;;;4973767;28;20247;-58
2021/08/18 17:02:57;;;;;;;1.60;0.87;;;;;;;;;;4978531;28;20031;-59
2021/08/18 17:05:23;;;;;;;2.53;0.80;;;;;;;;;;4971854;28;20102;-60
2021/08/18 17:07:48;;;;;;;1.87;0.70;;;;;;;;;;4971610;28;20469;-58
2021/08/18 17:10:14;;;;;;;1.63;0.70;;;;;;;;;;4971383;28;20372;-59
2021/08/18 17:12:39;;;;;;;2.07;0.80;;;;;;;;;;4971483;28;20361;-61
2021/08/18 17:15:05;;;;;;;1.33;0.67;;;;;;;;;;4971753;28;20026;-59
2021/08/18 17:17:31;;;;;;;1.85;0.90;;;;;;;;;;4986906;28;20574;-60
2021/08/18 17:19:56;;;;;;;1.53;0.70;;;;;;;;;;4991422;28;20101;-60
2021/08/18 17:22:21;;;;;;;2.73;0.90;;;;;;;;;;4990502;28;20470;-59
2021/08/18 17:24:47;;;;;;;2.23;0.70;;;;;;;;;;4990813;28;20121;-60
2021/08/18 17:27:12;;;;;;;1.33;0.80;;;;;;;;;;4990787;28;20027;-59
2021/08/18 17:29:38;;;;;;;1.80;0.80;;;;;;;;;;4989408;28;20506;-59
2021/08/18 17:32:03;;;;;;;1.48;0.70;;;;;;;;;;4971198;28;20022;-59
2021/08/18 17:34:29;;;;;;;1.20;0.60;;;;;;;;;;4971532;28;20045;-60
2021/08/18 17:36:54;;;;;;;2.03;0.80;;;;;;;;;;4971452;28;20025;-58
2021/08/18 17:39:20;;;;;;;1.73;0.77;;;;;;;;;;4954371;28;20106;-61
2021/08/18 17:41:45;;;;;;;0.90;0.50;;;;;;;;;;4953616;28;20042;-60
2021/08/18 17:44:11;;;;;;;1.87;0.90;;;;;;;;;;4969855;28;20478;-60
2021/08/18 17:46:36;;;;;;;1.30;0.63;;;;;;;;;;4970305;28;20027;-59
2021/08/18 17:49:01;;;;;;;1.97;0.73;;;;;;;;;;4935901;29;20555;-60
2021/08/18 17:51:27;;;;;;;1.83;0.80;;;;;;;;;;4933785;29;20032;-59
2021/08/18 17:53:52;;;;;;;1.00;0.67;;;;;;;;;;4966633;28;20035;-60
2021/08/18 17:56:17;;;;;;;2.10;0.80;;;;;;;;;;4969999;28;20108;-59
2021/08/18 17:58:43;;;;;;;1.80;0.97;;;;;;;;;;4961504;28;20033;-59
2021/08/18 18:01:08;;;;;;;1.57;0.80;;;;;;;;;;4989116;28;20117;-57
2021/08/18 18:03:33;;;;;;;1.90;0.90;;;;;;;;;;4972742;28;20034;-59
2021/08/18 18:05:59;;;;;;;1.97;0.87;;;;;;;;;;4971205;28;20058;-57
2021/08/18 18:08:24;;;;;;;1.83;0.80;;;;;;;;;;4967395;28;20019;-60
2021/08/18 18:10:50;;;;;;;1.40;0.70;;;;;;;;;;4969559;28;20062;-59
2021/08/18 18:13:15;;;;;;;1.60;0.70;;;;;;;;;;4969559;28;20379;-57
2021/08/18 18:15:41;;;;;;;1.27;0.80;;;;;;;;;;4970258;28;20109;-59
2021/08/18 18:18:06;;;;;;;3.05;0.90;;;;;;;;;;4970371;28;20062;-59
2021/08/18 18:20:32;;;;;;;1.37;0.87;;;;;;;;;;4969009;28;20507;-56
2021/08/18 18:22:58;;;;;;;2.23;0.93;;;;;;;;;;4969562;28;20065;-63
2021/08/18 18:25:23;;;;;;;3.13;1.08;;;;;;;;;;4990133;28;20029;-61
2021/08/18 18:27:49;;;;;;;3.47;1.07;;;;;;;;;;4989045;28;20105;-57
2021/08/18 18:30:14;;;;;;;2.27;1.10;;;;;;;;;;4973025;28;20033;-58
2021/08/18 18:32:40;;;;;;;4.50;1.20;;;;;;;;;;4956112;28;20565;-57
2021/08/18 18:35:10;;;;;;;2.07;1.00;;;;;;;;;;4973601;28;20134;-59
2021/08/18 18:37:36;;;;;;;2.67;1.20;;;;;;;;;;4974628;28;20034;-61
2021/08/18 18:40:01;;;;;;;1.70;0.90;;;;;;;;;;4975337;28;20088;-58
2021/08/18 18:42:28;;;;;;;2.00;0.93;;;;;;;;;;4973316;28;20161;-59
2021/08/18 18:44:54;;;;;;;2.20;0.88;;;;;;;;;;4956020;28;20162;-59
2021/08/18 18:47:19;;;;;;;2.83;1.13;;;;;;;;;;4976592;28;20026;-60
2021/08/18 18:49:44;;;;;;;2.17;1.07;;;;;;;;;;4968928;28;20465;-61
2021/08/18 18:52:10;;;;;;;4.53;0.93;;;;;;;;;;4964657;28;20114;-60
2021/08/18 18:54:35;;;;;;;2.90;1.00;;;;;;;;;;4956240;28;20093;-61
2021/08/18 18:57:02;;;;;;;1.97;0.90;;;;;;;;;;4980791;28;20120;-61
2021/08/18 18:59:27;;;;;;;2.97;0.88;;;;;;;;;;4986664;28;20428;-58
2021/08/18 19:01:52;;;;;;;3.83;1.30;;;;;;;;;;4953061;28;20042;-59
2021/08/18 19:09:46;;;;;;;2.83;1.33;;;;;;;;;;4953414;29;20051;-86
2021/08/18 19:12:15;;;;;;;3.25;1.20;;;;;;;;;;4937299;29;20067;-85
2021/08/18 19:14:59;;;;;;;2.63;1.20;;;;;;;;;;4930336;29;20067;-85
2021/08/18 19:18:02;;;;;;;2.72;1.48;;;;;;;;;;4934274;29;20411;-86
2021/08/18 19:20:41;;;;;;;3.50;1.27;;;;;;;;;;4927822;29;20041;-85
2021/08/18 19:23:38;;;;;;;4.53;1.30;;;;;;;;;;4946216;29;20036;-85
2021/08/18 19:26:32;;;;;;;3.63;1.45;;;;;;;;;;4950160;29;20028;-85
2021/08/18 19:29:53;;;;;;;2.92;1.38;;;;;;;;;;4920046;29;20058;-86
2021/08/18 19:33:07;;;;;;;4.05;1.60;;;;;;;;;;4935297;29;20450;-85
2021/08/18 19:35:55;;;;;;;4.00;1.40;;;;;;;;;;4913093;29;20439;-86
2021/08/18 19:38:32;;;;;;;3.55;1.42;;;;;;;;;;4899533;29;20503;-85
2021/08/18 19:41:07;;;;;;;3.47;1.45;;;;;;;;;;4914967;29;20039;-85
2021/08/18 19:43:37;;;;;;;3.08;1.40;;;;;;;;;;4934633;29;20051;-85
2021/08/18 19:46:03;;;;;;;3.00;1.45;;;;;;;;;;4933619;29;20036;-86
2021/08/18 19:48:30;;;;;;;3.43;1.47;;;;;;;;;;4917939;29;20044;-85
2021/08/18 19:50:56;;;;;;;;;;;;;;;;;;4918586;29;20059;-86
2021/08/18 19:53:26;;;;;;;2.83;1.10;;;;;;;;;;4917719;29;19953;-85
2021/08/18 19:56:18;;;;;;;3.50;0.95;;;;;;;;;;4920628;29;20032;-86
2021/08/18 19:58:44;;;;;;;3.08;1.50;;;;;;;;;;4933902;29;20081;-85
2021/08/18 20:01:13;;;;;;;2.38;1.20;;;;;;;;;;4917804;29;20028;-85
2021/08/18 20:03:41;;;;;;;3.60;1.40;;;;;;;;;;4934211;29;20376;-85
2021/08/18 20:06:15;;;;;;;4.80;1.60;;;;;;;;;;4917973;29;20131;-85
2021/08/18 20:08:42;;;;;;;3.15;1.42;;;;;;;;;;4932446;29;20063;-85
2021/08/18 20:11:08;;;;;;;4.65;1.30;;;;;;;;;;4949246;29;20043;-85
2021/08/18 20:13:36;;;;;;;2.75;1.27;;;;;;;;;;4948218;29;20455;-85
2021/08/18 20:16:02;;;;;;;3.88;1.20;;;;;;;;;;4927265;29;20569;-85
2021/08/18 20:18:44;;;;;;;3.05;1.30;;;;;;;;;;4916693;29;20450;-85
2021/08/18 20:21:11;;;;;;;4.70;1.77;;;;;;;;;;4931183;29;20785;-85
2021/08/18 20:23:38;;;;;;;3.22;1.40;;;;;;;;;;4933381;29;20114;-84
2021/08/18 20:26:05;;;;;;;4.50;1.63;;;;;;;;;;4917587;29;20591;-85
2021/08/18 20:28:31;;;;;;;3.92;1.35;;;;;;;;;;4917561;29;20038;-85
2021/08/18 20:30:58;;;;;;;2.20;1.17;;;;;;;;;;4915670;29;20035;-85